sensor_id;sensor_type;location;lat;lon;timestamp;P1;durP1;ratioP1;P2;durP2;ratioP2
75311;SDS011;63906;55.686;37.532;2023-07-13T00:01:47;1.70;;;0.98;;
75311;SDS011;63906;55.686;37.532;2023-07-13T00:06:49;2.25;;;1.45;;
75311;SDS011;63906;55.686;37.532;2023-07-13T00:11:51;2.00;;;1.50;;
75311;SDS011;63906;55.686;37.532;2023-07-13T00:16:54;1.58;;;1.30;;
75311;SDS011;63906;55.686;37.532;2023-07-13T00:21:55;1.77;;;1.30;;
75311;SDS011;63906;55.686;37.532;2023-07-13T00:26:55;2.28;;;1.50;;
75311;SDS011;63906;55.686;37.532;2023-07-13T00:31:56;2.00;;;1.70;;
75311;SDS011;63906;55.686;37.532;2023-07-13T00:36:57;2.13;;;1.70;;
75311;SDS011;63906;55.686;37.532;2023-07-13T00:41:58;3.25;;;1.58;;
75311;SDS011;63906;55.686;37.532;2023-07-13T00:47:00;1.80;;;1.33;;
75311;SDS011;63906;55.686;37.532;2023-07-13T00:52:07;1.48;;;1.20;;
75311;SDS011;63906;55.686;37.532;2023-07-13T00:57:11;2.08;;;1.35;;
75311;SDS011;63906;55.686;37.532;2023-07-13T01:02:15;2.53;;;1.40;;
75311;SDS011;63906;55.686;37.532;2023-07-13T01:07:16;2.33;;;1.48;;
75311;SDS011;63906;55.686;37.532;2023-07-13T01:12:18;3.25;;;1.80;;
75311;SDS011;63906;55.686;37.532;2023-07-13T01:17:19;2.03;;;1.50;;
75311;SDS011;63906;55.686;37.532;2023-07-13T01:22:20;2.10;;;1.30;;
75311;SDS011;63906;55.686;37.532;2023-07-13T01:27:25;2.45;;;1.50;;
75311;SDS011;63906;55.686;37.532;2023-07-13T01:32:26;1.88;;;1.60;;
75311;SDS011;63906;55.686;37.532;2023-07-13T01:37:26;2.83;;;1.63;;
75311;SDS011;63906;55.686;37.532;2023-07-13T01:42:27;2.45;;;1.70;;
75311;SDS011;63906;55.686;37.532;2023-07-13T01:47:28;2.28;;;1.35;;
75311;SDS011;63906;55.686;37.532;2023-07-13T01:52:30;3.47;;;1.50;;
75311;SDS011;63906;55.686;37.532;2023-07-13T01:57:31;1.65;;;1.20;;
75311;SDS011;63906;55.686;37.532;2023-07-13T02:02:31;2.00;;;1.30;;
75311;SDS011;63906;55.686;37.532;2023-07-13T02:07:32;1.98;;;1.50;;
75311;SDS011;63906;55.686;37.532;2023-07-13T02:12:33;1.60;;;1.00;;
75311;SDS011;63906;55.686;37.532;2023-07-13T02:17:34;2.30;;;1.50;;
75311;SDS011;63906;55.686;37.532;2023-07-13T02:22:36;3.42;;;1.95;;
75311;SDS011;63906;55.686;37.532;2023-07-13T02:27:36;1.70;;;1.50;;
75311;SDS011;63906;55.686;37.532;2023-07-13T02:32:37;2.22;;;1.77;;
75311;SDS011;63906;55.686;37.532;2023-07-13T02:37:37;3.42;;;2.08;;
75311;SDS011;63906;55.686;37.532;2023-07-13T02:42:38;1.88;;;1.38;;
75311;SDS011;63906;55.686;37.532;2023-07-13T02:47:40;3.15;;;1.70;;
75311;SDS011;63906;55.686;37.532;2023-07-13T02:52:42;1.88;;;1.45;;
75311;SDS011;63906;55.686;37.532;2023-07-13T02:57:42;3.45;;;1.73;;
75311;SDS011;63906;55.686;37.532;2023-07-13T03:02:43;1.90;;;1.50;;
75311;SDS011;63906;55.686;37.532;2023-07-13T03:07:43;2.20;;;1.83;;
75311;SDS011;63906;55.686;37.532;2023-07-13T03:12:44;3.05;;;1.92;;
75311;SDS011;63906;55.686;37.532;2023-07-13T03:17:44;2.07;;;1.40;;
75311;SDS011;63906;55.686;37.532;2023-07-13T03:22:45;1.95;;;1.50;;
75311;SDS011;63906;55.686;37.532;2023-07-13T03:27:46;2.38;;;1.50;;
75311;SDS011;63906;55.686;37.532;2023-07-13T03:32:46;2.55;;;1.73;;
75311;SDS011;63906;55.686;37.532;2023-07-13T03:37:47;2.58;;;1.60;;
75311;SDS011;63906;55.686;37.532;2023-07-13T03:42:47;2.77;;;2.07;;
75311;SDS011;63906;55.686;37.532;2023-07-13T03:47:48;1.85;;;1.30;;
75311;SDS011;63906;55.686;37.532;2023-07-13T03:52:48;3.37;;;1.80;;
75311;SDS011;63906;55.686;37.532;2023-07-13T03:57:54;4.97;;;1.90;;
75311;SDS011;63906;55.686;37.532;2023-07-13T04:02:59;2.53;;;1.77;;
75311;SDS011;63906;55.686;37.532;2023-07-13T04:08:00;2.05;;;1.30;;
75311;SDS011;63906;55.686;37.532;2023-07-13T04:13:00;1.93;;;1.30;;
75311;SDS011;63906;55.686;37.532;2023-07-13T04:18:01;2.35;;;1.70;;
75311;SDS011;63906;55.686;37.532;2023-07-13T04:23:03;3.88;;;1.77;;
75311;SDS011;63906;55.686;37.532;2023-07-13T04:28:04;2.30;;;1.70;;
75311;SDS011;63906;55.686;37.532;2023-07-13T04:33:05;3.00;;;1.63;;
75311;SDS011;63906;55.686;37.532;2023-07-13T04:38:06;2.40;;;1.52;;
75311;SDS011;63906;55.686;37.532;2023-07-13T04:43:06;2.30;;;1.63;;
75311;SDS011;63906;55.686;37.532;2023-07-13T04:48:07;3.85;;;1.73;;
75311;SDS011;63906;55.686;37.532;2023-07-13T04:53:08;2.75;;;1.70;;
75311;SDS011;63906;55.686;37.532;2023-07-13T04:58:08;2.88;;;1.98;;
75311;SDS011;63906;55.686;37.532;2023-07-13T05:03:09;2.20;;;1.55;;
75311;SDS011;63906;55.686;37.532;2023-07-13T05:08:11;4.00;;;1.55;;
75311;SDS011;63906;55.686;37.532;2023-07-13T05:13:11;2.60;;;1.63;;
75311;SDS011;63906;55.686;37.532;2023-07-13T05:18:12;3.22;;;1.90;;
75311;SDS011;63906;55.686;37.532;2023-07-13T05:23:12;2.93;;;1.60;;
75311;SDS011;63906;55.686;37.532;2023-07-13T05:28:13;1.60;;;1.30;;
75311;SDS011;63906;55.686;37.532;2023-07-13T05:33:13;3.35;;;1.60;;
75311;SDS011;63906;55.686;37.532;2023-07-13T05:38:14;2.83;;;1.80;;
75311;SDS011;63906;55.686;37.532;2023-07-13T05:43:14;3.10;;;1.60;;
75311;SDS011;63906;55.686;37.532;2023-07-13T05:48:15;1.50;;;1.20;;
75311;SDS011;63906;55.686;37.532;2023-07-13T05:53:16;2.00;;;1.30;;
75311;SDS011;63906;55.686;37.532;2023-07-13T05:58:17;1.90;;;1.40;;
75311;SDS011;63906;55.686;37.532;2023-07-13T06:03:18;3.15;;;1.48;;
75311;SDS011;63906;55.686;37.532;2023-07-13T06:08:18;2.30;;;1.67;;
75311;SDS011;63906;55.686;37.532;2023-07-13T06:13:19;3.10;;;1.63;;
75311;SDS011;63906;55.686;37.532;2023-07-13T06:18:19;1.65;;;1.40;;
75311;SDS011;63906;55.686;37.532;2023-07-13T06:23:29;2.25;;;1.40;;
75311;SDS011;63906;55.686;37.532;2023-07-13T06:28:29;2.05;;;1.33;;
75311;SDS011;63906;55.686;37.532;2023-07-13T06:33:31;1.63;;;1.10;;
75311;SDS011;63906;55.686;37.532;2023-07-13T06:38:32;2.15;;;1.50;;
75311;SDS011;63906;55.686;37.532;2023-07-13T06:43:33;1.65;;;1.08;;
75311;SDS011;63906;55.686;37.532;2023-07-13T06:48:33;2.95;;;1.40;;
75311;SDS011;63906;55.686;37.532;2023-07-13T06:53:34;2.78;;;1.38;;
75311;SDS011;63906;55.686;37.532;2023-07-13T06:58:35;3.13;;;1.10;;
75311;SDS011;63906;55.686;37.532;2023-07-13T07:03:35;2.45;;;1.30;;
75311;SDS011;63906;55.686;37.532;2023-07-13T07:08:36;2.15;;;1.20;;
75311;SDS011;63906;55.686;37.532;2023-07-13T07:13:36;1.73;;;1.47;;
75311;SDS011;63906;55.686;37.532;2023-07-13T07:18:37;2.05;;;1.23;;
75311;SDS011;63906;55.686;37.532;2023-07-13T07:23:37;2.03;;;1.27;;
75311;SDS011;63906;55.686;37.532;2023-07-13T07:28:38;3.40;;;1.95;;
75311;SDS011;63906;55.686;37.532;2023-07-13T07:33:38;1.75;;;1.42;;
75311;SDS011;63906;55.686;37.532;2023-07-13T07:38:39;4.78;;;1.20;;
75311;SDS011;63906;55.686;37.532;2023-07-13T07:43:39;2.15;;;1.20;;
75311;SDS011;63906;55.686;37.532;2023-07-13T07:48:40;4.00;;;1.60;;
75311;SDS011;63906;55.686;37.532;2023-07-13T07:53:40;3.03;;;1.50;;
75311;SDS011;63906;55.686;37.532;2023-07-13T07:58:41;2.80;;;1.70;;
75311;SDS011;63906;55.686;37.532;2023-07-13T08:03:42;2.58;;;1.70;;
75311;SDS011;63906;55.686;37.532;2023-07-13T08:08:43;3.85;;;1.50;;
75311;SDS011;63906;55.686;37.532;2023-07-13T08:13:43;4.28;;;1.75;;
75311;SDS011;63906;55.686;37.532;2023-07-13T08:18:44;2.20;;;1.40;;
75311;SDS011;63906;55.686;37.532;2023-07-13T08:23:44;2.53;;;1.35;;
75311;SDS011;63906;55.686;37.532;2023-07-13T08:28:45;2.13;;;1.50;;
75311;SDS011;63906;55.686;37.532;2023-07-13T08:33:45;2.40;;;1.40;;
75311;SDS011;63906;55.686;37.532;2023-07-13T08:38:46;2.70;;;1.33;;
75311;SDS011;63906;55.686;37.532;2023-07-13T08:43:51;4.03;;;1.60;;
75311;SDS011;63906;55.686;37.532;2023-07-13T08:48:56;3.22;;;2.00;;
75311;SDS011;63906;55.686;37.532;2023-07-13T08:54:00;2.42;;;1.70;;
75311;SDS011;63906;55.686;37.532;2023-07-13T08:59:06;3.65;;;1.88;;
75311;SDS011;63906;55.686;37.532;2023-07-13T09:04:18;2.88;;;1.98;;
75311;SDS011;63906;55.686;37.532;2023-07-13T09:19:49;3.33;;;2.15;;
75311;SDS011;63906;55.686;37.532;2023-07-13T09:25:00;3.67;;;2.10;;
75311;SDS011;63906;55.686;37.532;2023-07-13T09:35:26;3.78;;;2.53;;
75311;SDS011;63906;55.686;37.532;2023-07-13T09:45:41;4.47;;;2.35;;
75311;SDS011;63906;55.686;37.532;2023-07-13T09:50:46;4.80;;;2.28;;
75311;SDS011;63906;55.686;37.532;2023-07-13T09:55:47;3.08;;;1.83;;
75311;SDS011;63906;55.686;37.532;2023-07-13T10:00:54;4.32;;;2.28;;
75311;SDS011;63906;55.686;37.532;2023-07-13T10:06:01;4.07;;;2.72;;
75311;SDS011;63906;55.686;37.532;2023-07-13T10:11:20;5.10;;;2.45;;
75311;SDS011;63906;55.686;37.532;2023-07-13T10:16:24;3.47;;;2.30;;
75311;SDS011;63906;55.686;37.532;2023-07-13T10:21:31;3.65;;;2.13;;
75311;SDS011;63906;55.686;37.532;2023-07-13T10:26:35;3.33;;;2.40;;
75311;SDS011;63906;55.686;37.532;2023-07-13T10:31:41;4.72;;;2.47;;
75311;SDS011;63906;55.686;37.532;2023-07-13T10:36:46;4.13;;;2.60;;
75311;SDS011;63906;55.686;37.532;2023-07-13T10:41:50;4.47;;;2.28;;
75311;SDS011;63906;55.686;37.532;2023-07-13T10:47:04;3.17;;;2.25;;
75311;SDS011;63906;55.686;37.532;2023-07-13T10:52:36;3.97;;;2.50;;
75311;SDS011;63906;55.686;37.532;2023-07-13T10:57:54;3.90;;;3.13;;
75311;SDS011;63906;55.686;37.532;2023-07-13T11:03:00;4.35;;;2.38;;
75311;SDS011;63906;55.686;37.532;2023-07-13T11:08:11;4.47;;;2.40;;
75311;SDS011;63906;55.686;37.532;2023-07-13T11:18:36;4.63;;;2.90;;
75311;SDS011;63906;55.686;37.532;2023-07-13T11:23:36;2.78;;;2.10;;
75311;SDS011;63906;55.686;37.532;2023-07-13T11:28:44;4.63;;;2.20;;
75311;SDS011;63906;55.686;37.532;2023-07-13T11:33:50;4.40;;;2.47;;
75311;SDS011;63906;55.686;37.532;2023-07-13T11:39:01;5.10;;;2.85;;
75311;SDS011;63906;55.686;37.532;2023-07-13T11:44:17;4.70;;;2.50;;
75311;SDS011;63906;55.686;37.532;2023-07-13T11:49:20;3.50;;;2.22;;
75311;SDS011;63906;55.686;37.532;2023-07-13T11:54:28;4.57;;;2.63;;
75311;SDS011;63906;55.686;37.532;2023-07-13T11:59:34;5.25;;;2.75;;
75311;SDS011;63906;55.686;37.532;2023-07-13T12:04:41;5.70;;;2.63;;
75311;SDS011;63906;55.686;37.532;2023-07-13T12:09:43;3.13;;;2.15;;
75311;SDS011;63906;55.686;37.532;2023-07-13T12:14:43;4.80;;;2.65;;
75311;SDS011;63906;55.686;37.532;2023-07-13T12:19:44;5.97;;;2.55;;
75311;SDS011;63906;55.686;37.532;2023-07-13T12:24:46;5.05;;;2.63;;
75311;SDS011;63906;55.686;37.532;2023-07-13T12:35:20;4.25;;;2.13;;
75311;SDS011;63906;55.686;37.532;2023-07-13T12:40:20;3.03;;;1.92;;
75311;SDS011;63906;55.686;37.532;2023-07-13T12:45:27;3.75;;;2.40;;
75311;SDS011;63906;55.686;37.532;2023-07-13T12:50:29;4.53;;;2.78;;
75311;SDS011;63906;55.686;37.532;2023-07-13T12:55:44;3.85;;;2.03;;
75311;SDS011;63906;55.686;37.532;2023-07-13T13:00:49;4.78;;;2.13;;
75311;SDS011;63906;55.686;37.532;2023-07-13T13:06:02;2.95;;;2.03;;
75311;SDS011;63906;55.686;37.532;2023-07-13T13:11:20;5.60;;;2.65;;
75311;SDS011;63906;55.686;37.532;2023-07-13T13:16:28;4.60;;;2.67;;
75311;SDS011;63906;55.686;37.532;2023-07-13T13:21:34;4.82;;;2.45;;
75311;SDS011;63906;55.686;37.532;2023-07-13T13:26:35;4.00;;;2.53;;
75311;SDS011;63906;55.686;37.532;2023-07-13T13:31:35;3.90;;;2.33;;
75311;SDS011;63906;55.686;37.532;2023-07-13T13:36:36;3.70;;;2.70;;
75311;SDS011;63906;55.686;37.532;2023-07-13T13:41:36;4.97;;;2.60;;
75311;SDS011;63906;55.686;37.532;2023-07-13T13:46:37;3.75;;;2.70;;
75311;SDS011;63906;55.686;37.532;2023-07-13T13:51:37;3.97;;;2.47;;
75311;SDS011;63906;55.686;37.532;2023-07-13T13:56:38;3.72;;;2.55;;
75311;SDS011;63906;55.686;37.532;2023-07-13T14:01:39;5.25;;;2.88;;
75311;SDS011;63906;55.686;37.532;2023-07-13T14:06:40;4.93;;;2.53;;
75311;SDS011;63906;55.686;37.532;2023-07-13T14:11:42;4.22;;;2.67;;
75311;SDS011;63906;55.686;37.532;2023-07-13T14:16:43;4.50;;;3.10;;
75311;SDS011;63906;55.686;37.532;2023-07-13T14:21:44;5.43;;;3.08;;
75311;SDS011;63906;55.686;37.532;2023-07-13T14:26:45;4.72;;;2.78;;
75311;SDS011;63906;55.686;37.532;2023-07-13T14:31:46;4.60;;;3.03;;
75311;SDS011;63906;55.686;37.532;2023-07-13T14:36:47;4.35;;;2.78;;
75311;SDS011;63906;55.686;37.532;2023-07-13T14:41:53;5.63;;;2.88;;
75311;SDS011;63906;55.686;37.532;2023-07-13T14:46:58;3.00;;;2.10;;
75311;SDS011;63906;55.686;37.532;2023-07-13T14:52:02;3.22;;;1.92;;
75311;SDS011;63906;55.686;37.532;2023-07-13T14:57:11;5.35;;;2.60;;
75311;SDS011;63906;55.686;37.532;2023-07-13T15:02:16;3.38;;;2.60;;
75311;SDS011;63906;55.686;37.532;2023-07-13T15:07:21;3.00;;;2.63;;
75311;SDS011;63906;55.686;37.532;2023-07-13T15:12:23;3.92;;;2.47;;
75311;SDS011;63906;55.686;37.532;2023-07-13T15:22:36;2.75;;;1.90;;
75311;SDS011;63906;55.686;37.532;2023-07-13T15:27:37;3.83;;;2.50;;
75311;SDS011;63906;55.686;37.532;2023-07-13T15:32:38;3.92;;;2.10;;
75311;SDS011;63906;55.686;37.532;2023-07-13T15:37:43;4.38;;;2.40;;
75311;SDS011;63906;55.686;37.532;2023-07-13T15:42:48;3.38;;;2.03;;
75311;SDS011;63906;55.686;37.532;2023-07-13T15:47:49;3.38;;;2.40;;
75311;SDS011;63906;55.686;37.532;2023-07-13T15:52:52;5.13;;;2.10;;
75311;SDS011;63906;55.686;37.532;2023-07-13T15:57:54;3.60;;;2.10;;
75311;SDS011;63906;55.686;37.532;2023-07-13T16:02:55;4.32;;;2.50;;
75311;SDS011;63906;55.686;37.532;2023-07-13T16:07:56;4.30;;;2.70;;
75311;SDS011;63906;55.686;37.532;2023-07-13T16:12:58;3.90;;;2.17;;
75311;SDS011;63906;55.686;37.532;2023-07-13T16:18:00;3.03;;;2.25;;
75311;SDS011;63906;55.686;37.532;2023-07-13T16:23:01;3.63;;;2.42;;
75311;SDS011;63906;55.686;37.532;2023-07-13T16:28:03;3.22;;;1.95;;
75311;SDS011;63906;55.686;37.532;2023-07-13T16:33:05;5.55;;;2.63;;
75311;SDS011;63906;55.686;37.532;2023-07-13T16:38:19;3.83;;;2.47;;
75311;SDS011;63906;55.686;37.532;2023-07-13T16:43:20;5.20;;;2.78;;
75311;SDS011;63906;55.686;37.532;2023-07-13T16:48:22;4.47;;;2.22;;
75311;SDS011;63906;55.686;37.532;2023-07-13T16:53:28;3.95;;;2.60;;
75311;SDS011;63906;55.686;37.532;2023-07-13T16:58:31;4.35;;;2.72;;
75311;SDS011;63906;55.686;37.532;2023-07-13T17:03:32;5.15;;;2.67;;
75311;SDS011;63906;55.686;37.532;2023-07-13T17:08:33;5.57;;;2.92;;
75311;SDS011;63906;55.686;37.532;2023-07-13T17:13:35;4.10;;;2.90;;
75311;SDS011;63906;55.686;37.532;2023-07-13T17:18:36;4.43;;;2.72;;
75311;SDS011;63906;55.686;37.532;2023-07-13T17:23:36;4.15;;;2.92;;
75311;SDS011;63906;55.686;37.532;2023-07-13T17:28:38;4.38;;;2.90;;
75311;SDS011;63906;55.686;37.532;2023-07-13T17:33:39;4.72;;;2.40;;
75311;SDS011;63906;55.686;37.532;2023-07-13T17:38:45;3.97;;;2.75;;
75311;SDS011;63906;55.686;37.532;2023-07-13T17:43:51;2.88;;;2.38;;
75311;SDS011;63906;55.686;37.532;2023-07-13T17:48:51;4.15;;;2.13;;
75311;SDS011;63906;55.686;37.532;2023-07-13T17:53:53;4.30;;;2.63;;
75311;SDS011;63906;55.686;37.532;2023-07-13T17:58:56;4.93;;;2.80;;
75311;SDS011;63906;55.686;37.532;2023-07-13T18:03:56;6.50;;;2.60;;
75311;SDS011;63906;55.686;37.532;2023-07-13T18:09:00;3.65;;;2.42;;
75311;SDS011;63906;55.686;37.532;2023-07-13T18:14:07;4.68;;;2.70;;
75311;SDS011;63906;55.686;37.532;2023-07-13T18:19:16;5.15;;;2.70;;
75311;SDS011;63906;55.686;37.532;2023-07-13T18:24:39;4.60;;;2.85;;
75311;SDS011;63906;55.686;37.532;2023-07-13T18:29:40;7.00;;;3.42;;
75311;SDS011;63906;55.686;37.532;2023-07-13T18:34:43;4.05;;;2.88;;
75311;SDS011;63906;55.686;37.532;2023-07-13T18:44:52;5.65;;;2.83;;
75311;SDS011;63906;55.686;37.532;2023-07-13T18:49:54;3.95;;;3.00;;
75311;SDS011;63906;55.686;37.532;2023-07-13T18:54:58;5.50;;;3.75;;
75311;SDS011;63906;55.686;37.532;2023-07-13T18:59:59;7.80;;;3.67;;
75311;SDS011;63906;55.686;37.532;2023-07-13T19:04:59;5.00;;;3.70;;
75311;SDS011;63906;55.686;37.532;2023-07-13T19:10:00;5.13;;;3.92;;
75311;SDS011;63906;55.686;37.532;2023-07-13T19:15:01;4.80;;;3.20;;
75311;SDS011;63906;55.686;37.532;2023-07-13T19:20:02;5.15;;;3.45;;
75311;SDS011;63906;55.686;37.532;2023-07-13T19:25:03;4.72;;;3.05;;
75311;SDS011;63906;55.686;37.532;2023-07-13T19:30:07;4.90;;;3.50;;
75311;SDS011;63906;55.686;37.532;2023-07-13T19:35:09;4.70;;;3.42;;
75311;SDS011;63906;55.686;37.532;2023-07-13T19:40:15;5.45;;;3.50;;
75311;SDS011;63906;55.686;37.532;2023-07-13T19:45:20;5.00;;;3.95;;
75311;SDS011;63906;55.686;37.532;2023-07-13T19:50:22;4.70;;;3.42;;
75311;SDS011;63906;55.686;37.532;2023-07-13T19:55:24;4.97;;;3.22;;
75311;SDS011;63906;55.686;37.532;2023-07-13T20:00:26;4.55;;;2.97;;
75311;SDS011;63906;55.686;37.532;2023-07-13T20:05:27;5.75;;;3.50;;
75311;SDS011;63906;55.686;37.532;2023-07-13T20:10:30;5.43;;;2.97;;
75311;SDS011;63906;55.686;37.532;2023-07-13T20:15:33;7.03;;;3.35;;
75311;SDS011;63906;55.686;37.532;2023-07-13T20:20:35;4.07;;;2.95;;
75311;SDS011;63906;55.686;37.532;2023-07-13T20:25:38;6.65;;;3.97;;
75311;SDS011;63906;55.686;37.532;2023-07-13T20:30:45;4.15;;;3.47;;
75311;SDS011;63906;55.686;37.532;2023-07-13T20:35:47;3.35;;;2.60;;
75311;SDS011;63906;55.686;37.532;2023-07-13T20:40:49;3.90;;;3.22;;
75311;SDS011;63906;55.686;37.532;2023-07-13T20:45:58;5.45;;;2.75;;
75311;SDS011;63906;55.686;37.532;2023-07-13T20:51:05;3.95;;;2.90;;
75311;SDS011;63906;55.686;37.532;2023-07-13T20:56:19;3.13;;;2.30;;
75311;SDS011;63906;55.686;37.532;2023-07-13T21:01:31;4.03;;;2.60;;
75311;SDS011;63906;55.686;37.532;2023-07-13T21:06:33;6.57;;;2.80;;
75311;SDS011;63906;55.686;37.532;2023-07-13T21:16:36;4.27;;;2.67;;
75311;SDS011;63906;55.686;37.532;2023-07-13T21:21:37;4.32;;;2.65;;
75311;SDS011;63906;55.686;37.532;2023-07-13T21:26:37;2.58;;;1.67;;
75311;SDS011;63906;55.686;37.532;2023-07-13T21:31:38;2.78;;;1.80;;
75311;SDS011;63906;55.686;37.532;2023-07-13T21:36:38;3.25;;;2.20;;
75311;SDS011;63906;55.686;37.532;2023-07-13T21:41:39;4.18;;;2.50;;
75311;SDS011;63906;55.686;37.532;2023-07-13T21:46:40;3.40;;;2.40;;
75311;SDS011;63906;55.686;37.532;2023-07-13T21:51:40;2.72;;;2.20;;
75311;SDS011;63906;55.686;37.532;2023-07-13T21:56:41;5.33;;;3.43;;
75311;SDS011;63906;55.686;37.532;2023-07-13T22:01:42;5.13;;;3.60;;
75311;SDS011;63906;55.686;37.532;2023-07-13T22:06:43;4.85;;;2.90;;
75311;SDS011;63906;55.686;37.532;2023-07-13T22:11:43;3.85;;;2.90;;
75311;SDS011;63906;55.686;37.532;2023-07-13T22:16:44;3.53;;;2.42;;
75311;SDS011;63906;55.686;37.532;2023-07-13T22:21:45;4.15;;;2.78;;
75311;SDS011;63906;55.686;37.532;2023-07-13T22:26:46;4.00;;;2.97;;
75311;SDS011;63906;55.686;37.532;2023-07-13T22:31:47;3.55;;;2.92;;
75311;SDS011;63906;55.686;37.532;2023-07-13T22:36:48;4.13;;;2.70;;
75311;SDS011;63906;55.686;37.532;2023-07-13T22:41:49;4.45;;;3.28;;
75311;SDS011;63906;55.686;37.532;2023-07-13T22:46:50;3.45;;;2.60;;
75311;SDS011;63906;55.686;37.532;2023-07-13T22:51:54;5.13;;;3.42;;
75311;SDS011;63906;55.686;37.532;2023-07-13T22:56:55;4.20;;;2.90;;
75311;SDS011;63906;55.686;37.532;2023-07-13T23:01:55;4.00;;;2.67;;
75311;SDS011;63906;55.686;37.532;2023-07-13T23:06:56;5.30;;;3.38;;
75311;SDS011;63906;55.686;37.532;2023-07-13T23:11:58;5.15;;;3.13;;
75311;SDS011;63906;55.686;37.532;2023-07-13T23:17:00;4.07;;;3.00;;
75311;SDS011;63906;55.686;37.532;2023-07-13T23:22:01;3.97;;;2.83;;
75311;SDS011;63906;55.686;37.532;2023-07-13T23:27:02;5.18;;;3.15;;
75311;SDS011;63906;55.686;37.532;2023-07-13T23:32:04;4.20;;;2.60;;
75311;SDS011;63906;55.686;37.532;2023-07-13T23:37:13;5.15;;;2.70;;
75311;SDS011;63906;55.686;37.532;2023-07-13T23:42:16;4.15;;;3.10;;
75311;SDS011;63906;55.686;37.532;2023-07-13T23:47:16;6.03;;;4.23;;
75311;SDS011;63906;55.686;37.532;2023-07-13T23:52:18;6.35;;;4.53;;
75311;SDS011;63906;55.686;37.532;2023-07-13T23:57:19;6.77;;;4.60;;
